FAEO

Ermelo Airport

Ermelo, South Africa
METAR FAEO 180932Z 28009KT CAVOK 17/03 Q1026
Observed Flight Rules
Jun-18 @ 09:32 UTC (2 hours ago) Visual Flight Rules
Wind Visibility Clouds
280° at 9 knots 10,000+ meters
  • Clear skies
Temperatures Readings
Current 17°C / 63°F
Dewpoint 3°C / 37°F
Humidity 39%
Altimeter 30.3" Hg
Pressure 1026 hPa
Elevation 1737
METAR FAEO 180932Z 28009KT CAVOK 17/03 Q1026
Observed Flight Rules
Jun-18 @ 09:32 UTC
(2 hours ago)
VFR
Wind Visibility
280° at 9 knots 10,000+ meters
Clouds
  • Clear skies
Temperature Dewpoint
17°C / 63°F 3°C / 37°F
Humidity Altimeter Pressure
39% 30.3" Hg 1026 hPa